Terminal Aerodrome Forecast
Issued by NWS

Home | Current Version | Previous Version | Text Only | Print | Product List | Glossary On
Versions: 1 2 3 4 5 6 7 8 9 10 11 12 13 14 15 16 17 18 19 20 21 22 23 24 25 26 27 28 29 30 31 32 33
000
FTUS44 KHGX 201720
TAFCXO
TAF
KCXO 201720Z 2018/2118 10008KT P6SM BKN250
     FM210000 12004KT P6SM SCT180 BKN250
     FM210900 11004KT 6SM BR FEW008 BKN025 BKN250
     FM211300 10006KT P6SM VCSH BKN015 OVC025
     FM211700 12009KT P6SM BKN025 BKN060 OVC180=

USA.gov is the U.S. government's official web portal to all federal, state and local government web resources and services.